sensor_id;sensor_type;location;lat;lon;timestamp;temperature;humidity
21678;DHT22;11000;50.360;7.582;2023-12-28T00:01:13;6.40;99.90
21678;DHT22;11000;50.360;7.582;2023-12-28T00:03:33;6.40;99.90
21678;DHT22;11000;50.360;7.582;2023-12-28T00:05:53;6.40;99.90
21678;DHT22;11000;50.360;7.582;2023-12-28T00:08:14;6.50;99.90
21678;DHT22;11000;50.360;7.582;2023-12-28T00:10:34;6.50;99.90
21678;DHT22;11000;50.360;7.582;2023-12-28T00:12:57;6.50;99.90
21678;DHT22;11000;50.360;7.582;2023-12-28T00:15:17;6.50;99.90
21678;DHT22;11000;50.360;7.582;2023-12-28T00:17:38;6.50;99.90
21678;DHT22;11000;50.360;7.582;2023-12-28T00:19:58;6.50;99.90
21678;DHT22;11000;50.360;7.582;2023-12-28T00:22:19;6.60;99.90
21678;DHT22;11000;50.360;7.582;2023-12-28T00:24:39;6.60;99.90
21678;DHT22;11000;50.360;7.582;2023-12-28T00:26:59;6.60;99.90
21678;DHT22;11000;50.360;7.582;2023-12-28T00:29:20;6.70;99.90
21678;DHT22;11000;50.360;7.582;2023-12-28T00:31:40;6.70;99.90
21678;DHT22;11000;50.360;7.582;2023-12-28T00:34:01;6.70;99.90
21678;DHT22;11000;50.360;7.582;2023-12-28T00:36:21;6.70;99.90
21678;DHT22;11000;50.360;7.582;2023-12-28T00:38:42;6.70;99.90
21678;DHT22;11000;50.360;7.582;2023-12-28T00:41:03;6.80;99.90
21678;DHT22;11000;50.360;7.582;2023-12-28T00:43:23;6.80;99.90
21678;DHT22;11000;50.360;7.582;2023-12-28T00:45:43;6.80;99.90
21678;DHT22;11000;50.360;7.582;2023-12-28T00:48:04;6.80;99.90
21678;DHT22;11000;50.360;7.582;2023-12-28T00:50:25;6.90;99.90
21678;DHT22;11000;50.360;7.582;2023-12-28T00:52:47;6.90;99.90
21678;DHT22;11000;50.360;7.582;2023-12-28T00:55:08;7.00;99.90
21678;DHT22;11000;50.360;7.582;2023-12-28T00:57:29;7.00;99.90
21678;DHT22;11000;50.360;7.582;2023-12-28T00:59:49;7.10;99.90
21678;DHT22;11000;50.360;7.582;2023-12-28T01:02:10;7.10;99.90
21678;DHT22;11000;50.360;7.582;2023-12-28T01:04:30;7.20;99.90
21678;DHT22;11000;50.360;7.582;2023-12-28T01:06:52;7.30;99.90
21678;DHT22;11000;50.360;7.582;2023-12-28T01:09:12;7.50;99.90
21678;DHT22;11000;50.360;7.582;2023-12-28T01:11:33;7.60;99.90
21678;DHT22;11000;50.360;7.582;2023-12-28T01:13:53;7.80;99.90
21678;DHT22;11000;50.360;7.582;2023-12-28T01:16:14;8.00;99.90
21678;DHT22;11000;50.360;7.582;2023-12-28T01:18:34;8.20;99.90
21678;DHT22;11000;50.360;7.582;2023-12-28T01:20:55;8.30;99.90
21678;DHT22;11000;50.360;7.582;2023-12-28T01:23:15;8.40;99.90
21678;DHT22;11000;50.360;7.582;2023-12-28T01:25:36;8.60;99.90
21678;DHT22;11000;50.360;7.582;2023-12-28T01:27:56;8.70;99.90
21678;DHT22;11000;50.360;7.582;2023-12-28T01:30:17;8.90;99.90
21678;DHT22;11000;50.360;7.582;2023-12-28T01:32:37;9.00;99.90
21678;DHT22;11000;50.360;7.582;2023-12-28T01:34:58;9.10;99.90
21678;DHT22;11000;50.360;7.582;2023-12-28T01:37:18;9.10;99.90
21678;DHT22;11000;50.360;7.582;2023-12-28T01:39:39;9.10;99.90
21678;DHT22;11000;50.360;7.582;2023-12-28T01:42:00;9.10;99.90
21678;DHT22;11000;50.360;7.582;2023-12-28T01:44:20;9.10;99.90
21678;DHT22;11000;50.360;7.582;2023-12-28T01:46:41;9.20;99.90
21678;DHT22;11000;50.360;7.582;2023-12-28T01:49:03;9.20;99.90
21678;DHT22;11000;50.360;7.582;2023-12-28T01:51:23;9.30;99.90
21678;DHT22;11000;50.360;7.582;2023-12-28T01:53:45;9.30;99.90
21678;DHT22;11000;50.360;7.582;2023-12-28T01:56:08;9.30;99.90
21678;DHT22;11000;50.360;7.582;2023-12-28T01:58:28;9.20;99.90
21678;DHT22;11000;50.360;7.582;2023-12-28T02:00:50;9.30;99.90
21678;DHT22;11000;50.360;7.582;2023-12-28T02:03:11;9.40;99.90
21678;DHT22;11000;50.360;7.582;2023-12-28T02:05:32;9.40;99.90
21678;DHT22;11000;50.360;7.582;2023-12-28T02:07:54;9.40;99.90
21678;DHT22;11000;50.360;7.582;2023-12-28T02:10:14;9.40;99.90
21678;DHT22;11000;50.360;7.582;2023-12-28T02:12:35;9.40;99.90
21678;DHT22;11000;50.360;7.582;2023-12-28T02:14:55;9.40;99.90
21678;DHT22;11000;50.360;7.582;2023-12-28T02:17:22;9.40;99.90
21678;DHT22;11000;50.360;7.582;2023-12-28T02:19:55;9.40;99.90
21678;DHT22;11000;50.360;7.582;2023-12-28T02:22:16;9.40;99.90
21678;DHT22;11000;50.360;7.582;2023-12-28T02:25:03;9.40;99.90
21678;DHT22;11000;50.360;7.582;2023-12-28T02:27:24;9.40;99.90
21678;DHT22;11000;50.360;7.582;2023-12-28T02:29:45;9.30;99.90
21678;DHT22;11000;50.360;7.582;2023-12-28T02:32:07;9.30;99.90
21678;DHT22;11000;50.360;7.582;2023-12-28T02:34:34;9.30;99.90
21678;DHT22;11000;50.360;7.582;2023-12-28T02:36:58;9.30;99.90
21678;DHT22;11000;50.360;7.582;2023-12-28T02:39:20;9.30;99.90
21678;DHT22;11000;50.360;7.582;2023-12-28T02:41:43;9.30;99.90
21678;DHT22;11000;50.360;7.582;2023-12-28T02:44:04;9.20;99.90
21678;DHT22;11000;50.360;7.582;2023-12-28T02:46:25;9.30;99.90
21678;DHT22;11000;50.360;7.582;2023-12-28T02:48:45;9.30;99.90
21678;DHT22;11000;50.360;7.582;2023-12-28T02:51:06;9.30;99.90
21678;DHT22;11000;50.360;7.582;2023-12-28T02:53:26;9.30;99.90
21678;DHT22;11000;50.360;7.582;2023-12-28T02:55:47;9.40;99.90
21678;DHT22;11000;50.360;7.582;2023-12-28T02:58:07;9.40;99.90
21678;DHT22;11000;50.360;7.582;2023-12-28T03:00:28;9.40;99.90
21678;DHT22;11000;50.360;7.582;2023-12-28T03:02:49;9.40;99.90
21678;DHT22;11000;50.360;7.582;2023-12-28T03:05:09;9.40;99.90
21678;DHT22;11000;50.360;7.582;2023-12-28T03:07:30;9.40;99.90
21678;DHT22;11000;50.360;7.582;2023-12-28T03:09:50;9.40;99.90
21678;DHT22;11000;50.360;7.582;2023-12-28T03:12:11;9.40;99.90
21678;DHT22;11000;50.360;7.582;2023-12-28T03:14:31;9.40;99.90
21678;DHT22;11000;50.360;7.582;2023-12-28T03:16:52;9.40;99.90
21678;DHT22;11000;50.360;7.582;2023-12-28T03:19:13;9.40;99.90
21678;DHT22;11000;50.360;7.582;2023-12-28T03:21:33;9.40;99.90
21678;DHT22;11000;50.360;7.582;2023-12-28T03:23:58;9.40;99.90
21678;DHT22;11000;50.360;7.582;2023-12-28T03:26:18;9.40;99.90
21678;DHT22;11000;50.360;7.582;2023-12-28T03:28:40;9.40;99.90
21678;DHT22;11000;50.360;7.582;2023-12-28T03:31:02;9.40;99.90
21678;DHT22;11000;50.360;7.582;2023-12-28T03:33:23;9.30;99.90
21678;DHT22;11000;50.360;7.582;2023-12-28T03:35:43;9.30;99.90
21678;DHT22;11000;50.360;7.582;2023-12-28T03:38:04;9.40;99.90
21678;DHT22;11000;50.360;7.582;2023-12-28T03:40:24;9.30;99.90
21678;DHT22;11000;50.360;7.582;2023-12-28T03:42:45;9.40;99.90
21678;DHT22;11000;50.360;7.582;2023-12-28T03:45:06;9.30;99.90
21678;DHT22;11000;50.360;7.582;2023-12-28T03:47:26;9.30;99.90
21678;DHT22;11000;50.360;7.582;2023-12-28T03:49:47;9.40;99.90
21678;DHT22;11000;50.360;7.582;2023-12-28T03:52:07;9.40;99.90
21678;DHT22;11000;50.360;7.582;2023-12-28T03:54:28;9.40;99.90
21678;DHT22;11000;50.360;7.582;2023-12-28T03:56:48;9.30;99.90
21678;DHT22;11000;50.360;7.582;2023-12-28T03:59:09;9.30;99.90
21678;DHT22;11000;50.360;7.582;2023-12-28T04:01:30;9.40;99.90
21678;DHT22;11000;50.360;7.582;2023-12-28T04:03:51;9.40;99.90
21678;DHT22;11000;50.360;7.582;2023-12-28T04:06:11;9.30;99.90
21678;DHT22;11000;50.360;7.582;2023-12-28T04:08:33;9.30;99.90
21678;DHT22;11000;50.360;7.582;2023-12-28T04:10:53;9.40;99.90
21678;DHT22;11000;50.360;7.582;2023-12-28T04:13:14;9.40;99.90
21678;DHT22;11000;50.360;7.582;2023-12-28T04:15:35;9.40;99.90
21678;DHT22;11000;50.360;7.582;2023-12-28T04:17:56;9.40;99.90
21678;DHT22;11000;50.360;7.582;2023-12-28T04:20:16;9.40;99.90
21678;DHT22;11000;50.360;7.582;2023-12-28T04:22:37;9.40;99.90
21678;DHT22;11000;50.360;7.582;2023-12-28T04:24:57;9.40;99.90
21678;DHT22;11000;50.360;7.582;2023-12-28T04:27:18;9.40;99.90
21678;DHT22;11000;50.360;7.582;2023-12-28T04:29:38;9.40;99.90
21678;DHT22;11000;50.360;7.582;2023-12-28T04:31:58;9.50;99.90
21678;DHT22;11000;50.360;7.582;2023-12-28T04:34:19;9.40;99.90
21678;DHT22;11000;50.360;7.582;2023-12-28T04:36:43;9.50;99.90
21678;DHT22;11000;50.360;7.582;2023-12-28T04:39:05;9.50;99.90
21678;DHT22;11000;50.360;7.582;2023-12-28T04:41:25;9.50;99.90
21678;DHT22;11000;50.360;7.582;2023-12-28T04:43:45;9.50;99.90
21678;DHT22;11000;50.360;7.582;2023-12-28T04:46:06;9.50;99.90
21678;DHT22;11000;50.360;7.582;2023-12-28T04:48:27;9.50;99.90
21678;DHT22;11000;50.360;7.582;2023-12-28T04:50:47;9.50;99.90
21678;DHT22;11000;50.360;7.582;2023-12-28T04:53:08;9.60;99.90
21678;DHT22;11000;50.360;7.582;2023-12-28T04:55:29;9.50;99.90
21678;DHT22;11000;50.360;7.582;2023-12-28T04:57:49;9.60;99.90
21678;DHT22;11000;50.360;7.582;2023-12-28T05:00:10;9.50;99.90
21678;DHT22;11000;50.360;7.582;2023-12-28T05:02:30;9.60;99.90
21678;DHT22;11000;50.360;7.582;2023-12-28T05:04:51;9.60;99.90
21678;DHT22;11000;50.360;7.582;2023-12-28T05:07:11;9.60;99.90
21678;DHT22;11000;50.360;7.582;2023-12-28T05:09:32;9.70;99.90
21678;DHT22;11000;50.360;7.582;2023-12-28T05:11:52;9.70;99.90
21678;DHT22;11000;50.360;7.582;2023-12-28T05:14:13;9.70;99.90
21678;DHT22;11000;50.360;7.582;2023-12-28T05:16:33;9.70;99.90
21678;DHT22;11000;50.360;7.582;2023-12-28T05:18:54;9.70;99.90
21678;DHT22;11000;50.360;7.582;2023-12-28T05:21:15;9.70;99.90
21678;DHT22;11000;50.360;7.582;2023-12-28T05:23:35;9.70;99.90
21678;DHT22;11000;50.360;7.582;2023-12-28T05:25:56;9.60;99.90
21678;DHT22;11000;50.360;7.582;2023-12-28T05:28:16;9.60;99.90
21678;DHT22;11000;50.360;7.582;2023-12-28T05:30:37;9.60;99.90
21678;DHT22;11000;50.360;7.582;2023-12-28T05:32:57;9.60;99.90
21678;DHT22;11000;50.360;7.582;2023-12-28T05:35:18;9.60;99.90
21678;DHT22;11000;50.360;7.582;2023-12-28T05:37:38;9.60;99.90
21678;DHT22;11000;50.360;7.582;2023-12-28T05:39:59;9.60;99.90
21678;DHT22;11000;50.360;7.582;2023-12-28T05:42:20;9.60;99.90
21678;DHT22;11000;50.360;7.582;2023-12-28T05:44:40;9.60;99.90
21678;DHT22;11000;50.360;7.582;2023-12-28T05:47:00;9.70;99.90
21678;DHT22;11000;50.360;7.582;2023-12-28T05:49:21;9.60;99.90
21678;DHT22;11000;50.360;7.582;2023-12-28T05:51:42;9.70;99.90
21678;DHT22;11000;50.360;7.582;2023-12-28T05:54:02;9.80;99.90
21678;DHT22;11000;50.360;7.582;2023-12-28T05:56:23;9.80;99.90
21678;DHT22;11000;50.360;7.582;2023-12-28T05:58:43;9.70;99.90
21678;DHT22;11000;50.360;7.582;2023-12-28T06:01:04;9.70;99.90
21678;DHT22;11000;50.360;7.582;2023-12-28T06:03:25;9.70;99.90
21678;DHT22;11000;50.360;7.582;2023-12-28T06:05:48;9.70;99.90
21678;DHT22;11000;50.360;7.582;2023-12-28T06:08:08;9.70;99.90
21678;DHT22;11000;50.360;7.582;2023-12-28T06:10:31;9.70;99.90
21678;DHT22;11000;50.360;7.582;2023-12-28T06:12:51;9.80;99.90
21678;DHT22;11000;50.360;7.582;2023-12-28T06:15:12;9.80;99.90
21678;DHT22;11000;50.360;7.582;2023-12-28T06:17:33;9.80;99.90
21678;DHT22;11000;50.360;7.582;2023-12-28T06:19:53;9.80;99.90
21678;DHT22;11000;50.360;7.582;2023-12-28T06:22:14;9.80;99.90
21678;DHT22;11000;50.360;7.582;2023-12-28T06:24:38;9.90;99.90
21678;DHT22;11000;50.360;7.582;2023-12-28T06:26:58;9.90;99.90
21678;DHT22;11000;50.360;7.582;2023-12-28T06:29:19;9.90;99.90
21678;DHT22;11000;50.360;7.582;2023-12-28T06:31:39;9.90;99.90
21678;DHT22;11000;50.360;7.582;2023-12-28T06:34:00;10.00;99.90
21678;DHT22;11000;50.360;7.582;2023-12-28T06:36:20;10.00;99.90
21678;DHT22;11000;50.360;7.582;2023-12-28T06:38:41;9.90;99.90
21678;DHT22;11000;50.360;7.582;2023-12-28T06:41:02;9.80;99.90
21678;DHT22;11000;50.360;7.582;2023-12-28T06:43:22;9.80;99.90
21678;DHT22;11000;50.360;7.582;2023-12-28T06:45:43;9.70;99.90
21678;DHT22;11000;50.360;7.582;2023-12-28T06:48:03;9.80;99.90
21678;DHT22;11000;50.360;7.582;2023-12-28T06:50:24;9.90;99.90
21678;DHT22;11000;50.360;7.582;2023-12-28T06:52:44;9.90;99.90
21678;DHT22;11000;50.360;7.582;2023-12-28T06:55:07;9.90;99.90
21678;DHT22;11000;50.360;7.582;2023-12-28T06:57:28;9.90;99.90
21678;DHT22;11000;50.360;7.582;2023-12-28T06:59:48;10.00;99.90
21678;DHT22;11000;50.360;7.582;2023-12-28T07:02:09;10.00;99.90
21678;DHT22;11000;50.360;7.582;2023-12-28T07:04:29;10.00;99.90
21678;DHT22;11000;50.360;7.582;2023-12-28T07:06:50;10.00;99.90
21678;DHT22;11000;50.360;7.582;2023-12-28T07:09:10;10.00;99.90
21678;DHT22;11000;50.360;7.582;2023-12-28T07:11:31;10.00;99.90
21678;DHT22;11000;50.360;7.582;2023-12-28T07:13:51;10.00;99.90
21678;DHT22;11000;50.360;7.582;2023-12-28T07:16:12;10.00;99.90
21678;DHT22;11000;50.360;7.582;2023-12-28T07:18:33;10.00;99.90
21678;DHT22;11000;50.360;7.582;2023-12-28T07:20:54;10.00;99.90
21678;DHT22;11000;50.360;7.582;2023-12-28T07:23:14;10.10;99.90
21678;DHT22;11000;50.360;7.582;2023-12-28T07:25:35;10.10;99.90
21678;DHT22;11000;50.360;7.582;2023-12-28T07:27:56;10.10;99.90
21678;DHT22;11000;50.360;7.582;2023-12-28T07:30:16;10.10;99.90
21678;DHT22;11000;50.360;7.582;2023-12-28T07:32:37;10.10;99.90
21678;DHT22;11000;50.360;7.582;2023-12-28T07:34:58;10.10;99.90
21678;DHT22;11000;50.360;7.582;2023-12-28T07:37:19;10.10;99.90
21678;DHT22;11000;50.360;7.582;2023-12-28T07:39:39;10.10;99.90
21678;DHT22;11000;50.360;7.582;2023-12-28T07:42:00;10.20;99.90
21678;DHT22;11000;50.360;7.582;2023-12-28T07:44:20;10.10;99.90
21678;DHT22;11000;50.360;7.582;2023-12-28T07:46:41;10.10;99.90
21678;DHT22;11000;50.360;7.582;2023-12-28T07:49:02;10.10;99.90
21678;DHT22;11000;50.360;7.582;2023-12-28T07:51:22;10.00;99.90
21678;DHT22;11000;50.360;7.582;2023-12-28T07:53:43;10.00;99.90
21678;DHT22;11000;50.360;7.582;2023-12-28T07:56:03;10.00;99.90
21678;DHT22;11000;50.360;7.582;2023-12-28T07:58:24;10.00;99.90
21678;DHT22;11000;50.360;7.582;2023-12-28T08:00:44;10.10;99.90
21678;DHT22;11000;50.360;7.582;2023-12-28T08:03:05;10.10;99.90
21678;DHT22;11000;50.360;7.582;2023-12-28T08:05:25;10.10;99.90
21678;DHT22;11000;50.360;7.582;2023-12-28T08:07:46;10.10;99.90
21678;DHT22;11000;50.360;7.582;2023-12-28T08:10:07;10.10;99.90
21678;DHT22;11000;50.360;7.582;2023-12-28T08:12:27;10.10;99.90
21678;DHT22;11000;50.360;7.582;2023-12-28T08:14:48;10.10;99.90
21678;DHT22;11000;50.360;7.582;2023-12-28T08:17:08;10.10;99.90
21678;DHT22;11000;50.360;7.582;2023-12-28T08:19:29;10.20;99.90
21678;DHT22;11000;50.360;7.582;2023-12-28T08:21:49;10.20;99.90
21678;DHT22;11000;50.360;7.582;2023-12-28T08:24:10;10.20;99.90
21678;DHT22;11000;50.360;7.582;2023-12-28T08:26:31;10.20;99.90
21678;DHT22;11000;50.360;7.582;2023-12-28T08:28:53;10.30;99.90
21678;DHT22;11000;50.360;7.582;2023-12-28T08:31:13;10.30;99.90
21678;DHT22;11000;50.360;7.582;2023-12-28T08:33:34;10.30;99.90
21678;DHT22;11000;50.360;7.582;2023-12-28T08:35:55;10.30;99.90
21678;DHT22;11000;50.360;7.582;2023-12-28T08:38:16;10.30;99.90
21678;DHT22;11000;50.360;7.582;2023-12-28T08:40:36;10.30;99.90
21678;DHT22;11000;50.360;7.582;2023-12-28T08:42:57;10.30;99.90
21678;DHT22;11000;50.360;7.582;2023-12-28T08:45:17;10.40;99.90
21678;DHT22;11000;50.360;7.582;2023-12-28T08:47:38;10.30;99.90
21678;DHT22;11000;50.360;7.582;2023-12-28T08:49:58;10.40;99.90
21678;DHT22;11000;50.360;7.582;2023-12-28T08:52:19;10.50;99.90
21678;DHT22;11000;50.360;7.582;2023-12-28T08:54:40;10.50;99.90
21678;DHT22;11000;50.360;7.582;2023-12-28T08:57:01;10.60;99.90
21678;DHT22;11000;50.360;7.582;2023-12-28T08:59:21;10.60;99.90
21678;DHT22;11000;50.360;7.582;2023-12-28T09:01:42;10.60;99.90
21678;DHT22;11000;50.360;7.582;2023-12-28T09:04:02;10.70;99.90
21678;DHT22;11000;50.360;7.582;2023-12-28T09:06:23;10.60;99.90
21678;DHT22;11000;50.360;7.582;2023-12-28T09:08:45;10.60;99.90
21678;DHT22;11000;50.360;7.582;2023-12-28T09:11:10;10.70;99.90
21678;DHT22;11000;50.360;7.582;2023-12-28T09:13:31;10.60;99.90
21678;DHT22;11000;50.360;7.582;2023-12-28T09:15:51;10.70;99.90
21678;DHT22;11000;50.360;7.582;2023-12-28T09:18:12;10.70;99.90
21678;DHT22;11000;50.360;7.582;2023-12-28T09:20:33;10.70;99.90
21678;DHT22;11000;50.360;7.582;2023-12-28T09:22:55;10.80;99.90
21678;DHT22;11000;50.360;7.582;2023-12-28T09:25:16;10.80;99.90
21678;DHT22;11000;50.360;7.582;2023-12-28T09:27:37;10.80;99.90
21678;DHT22;11000;50.360;7.582;2023-12-28T09:29:57;10.80;99.90
21678;DHT22;11000;50.360;7.582;2023-12-28T09:32:17;10.80;99.90
21678;DHT22;11000;50.360;7.582;2023-12-28T09:34:40;10.90;99.90
21678;DHT22;11000;50.360;7.582;2023-12-28T09:37:00;10.90;99.90
21678;DHT22;11000;50.360;7.582;2023-12-28T09:39:21;10.90;99.90
21678;DHT22;11000;50.360;7.582;2023-12-28T09:41:43;10.90;99.90
21678;DHT22;11000;50.360;7.582;2023-12-28T09:44:11;10.90;99.90
21678;DHT22;11000;50.360;7.582;2023-12-28T09:46:32;10.90;99.90
21678;DHT22;11000;50.360;7.582;2023-12-28T09:48:53;10.90;99.90
21678;DHT22;11000;50.360;7.582;2023-12-28T09:51:16;11.00;99.90
21678;DHT22;11000;50.360;7.582;2023-12-28T09:53:38;11.00;99.90
21678;DHT22;11000;50.360;7.582;2023-12-28T09:55:59;11.00;99.90
21678;DHT22;11000;50.360;7.582;2023-12-28T09:58:21;11.00;99.90
21678;DHT22;11000;50.360;7.582;2023-12-28T10:00:44;11.00;99.90
21678;DHT22;11000;50.360;7.582;2023-12-28T10:03:06;11.00;99.90
21678;DHT22;11000;50.360;7.582;2023-12-28T10:05:26;11.00;99.90
21678;DHT22;11000;50.360;7.582;2023-12-28T10:07:47;11.10;99.90
21678;DHT22;11000;50.360;7.582;2023-12-28T10:10:09;11.20;99.90
21678;DHT22;11000;50.360;7.582;2023-12-28T10:12:32;11.20;99.90
21678;DHT22;11000;50.360;7.582;2023-12-28T10:14:53;11.20;99.90
21678;DHT22;11000;50.360;7.582;2023-12-28T10:17:14;11.30;99.90
21678;DHT22;11000;50.360;7.582;2023-12-28T10:19:34;11.30;99.90
21678;DHT22;11000;50.360;7.582;2023-12-28T10:21:56;11.30;99.90
21678;DHT22;11000;50.360;7.582;2023-12-28T10:24:17;11.40;99.90
21678;DHT22;11000;50.360;7.582;2023-12-28T10:26:38;11.40;99.90
21678;DHT22;11000;50.360;7.582;2023-12-28T10:29:01;11.50;99.90
21678;DHT22;11000;50.360;7.582;2023-12-28T10:31:23;11.50;99.90
21678;DHT22;11000;50.360;7.582;2023-12-28T10:33:44;11.50;99.90
21678;DHT22;11000;50.360;7.582;2023-12-28T10:36:07;11.50;99.90
21678;DHT22;11000;50.360;7.582;2023-12-28T10:38:32;11.60;99.90
21678;DHT22;11000;50.360;7.582;2023-12-28T10:40:54;11.50;99.90
21678;DHT22;11000;50.360;7.582;2023-12-28T10:43:16;11.50;99.90
21678;DHT22;11000;50.360;7.582;2023-12-28T10:45:39;11.50;99.90
21678;DHT22;11000;50.360;7.582;2023-12-28T10:48:07;11.50;99.90
21678;DHT22;11000;50.360;7.582;2023-12-28T10:50:29;11.50;99.90
21678;DHT22;11000;50.360;7.582;2023-12-28T10:52:53;11.50;99.90
21678;DHT22;11000;50.360;7.582;2023-12-28T10:57:44;11.60;99.90
21678;DHT22;11000;50.360;7.582;2023-12-28T11:00:10;11.60;99.90
21678;DHT22;11000;50.360;7.582;2023-12-28T11:02:38;11.70;99.90
21678;DHT22;11000;50.360;7.582;2023-12-28T11:05:00;11.70;99.90
21678;DHT22;11000;50.360;7.582;2023-12-28T11:07:23;11.70;99.90
21678;DHT22;11000;50.360;7.582;2023-12-28T11:09:45;11.70;99.90
21678;DHT22;11000;50.360;7.582;2023-12-28T11:12:07;11.70;99.90
21678;DHT22;11000;50.360;7.582;2023-12-28T11:14:28;11.70;99.90
21678;DHT22;11000;50.360;7.582;2023-12-28T11:16:49;11.70;99.90
21678;DHT22;11000;50.360;7.582;2023-12-28T11:19:11;11.70;99.90
21678;DHT22;11000;50.360;7.582;2023-12-28T11:21:33;11.70;99.90
21678;DHT22;11000;50.360;7.582;2023-12-28T11:23:54;11.80;99.90
21678;DHT22;11000;50.360;7.582;2023-12-28T11:26:18;11.80;99.90
21678;DHT22;11000;50.360;7.582;2023-12-28T11:28:39;11.90;99.90
21678;DHT22;11000;50.360;7.582;2023-12-28T11:30:59;12.00;99.90
21678;DHT22;11000;50.360;7.582;2023-12-28T11:33:20;12.00;99.90
21678;DHT22;11000;50.360;7.582;2023-12-28T11:35:40;12.10;99.90
21678;DHT22;11000;50.360;7.582;2023-12-28T11:38:01;12.10;99.90
21678;DHT22;11000;50.360;7.582;2023-12-28T11:40:26;12.20;99.90
21678;DHT22;11000;50.360;7.582;2023-12-28T11:42:54;12.20;99.90
21678;DHT22;11000;50.360;7.582;2023-12-28T11:45:16;12.20;99.90
21678;DHT22;11000;50.360;7.582;2023-12-28T11:47:37;12.20;99.90
21678;DHT22;11000;50.360;7.582;2023-12-28T11:50:06;12.20;99.90
21678;DHT22;11000;50.360;7.582;2023-12-28T11:52:29;12.20;99.90
21678;DHT22;11000;50.360;7.582;2023-12-28T11:54:50;12.30;99.90
21678;DHT22;11000;50.360;7.582;2023-12-28T11:57:11;12.30;99.90
21678;DHT22;11000;50.360;7.582;2023-12-28T11:59:32;12.30;99.90
21678;DHT22;11000;50.360;7.582;2023-12-28T12:01:53;12.30;99.90
21678;DHT22;11000;50.360;7.582;2023-12-28T12:04:14;12.30;99.90
21678;DHT22;11000;50.360;7.582;2023-12-28T12:06:34;12.40;99.90
21678;DHT22;11000;50.360;7.582;2023-12-28T12:08:55;12.30;99.90
21678;DHT22;11000;50.360;7.582;2023-12-28T12:11:18;12.40;99.90
21678;DHT22;11000;50.360;7.582;2023-12-28T12:13:38;12.40;99.90
21678;DHT22;11000;50.360;7.582;2023-12-28T12:15:59;12.40;99.90
21678;DHT22;11000;50.360;7.582;2023-12-28T12:18:25;12.50;99.90
21678;DHT22;11000;50.360;7.582;2023-12-28T12:20:46;12.50;99.90
21678;DHT22;11000;50.360;7.582;2023-12-28T12:23:07;12.50;99.90
21678;DHT22;11000;50.360;7.582;2023-12-28T12:25:28;12.60;99.90
21678;DHT22;11000;50.360;7.582;2023-12-28T12:27:49;12.60;99.90
21678;DHT22;11000;50.360;7.582;2023-12-28T12:30:10;12.60;99.90
21678;DHT22;11000;50.360;7.582;2023-12-28T12:32:31;12.70;99.90
21678;DHT22;11000;50.360;7.582;2023-12-28T12:34:52;12.70;99.90
21678;DHT22;11000;50.360;7.582;2023-12-28T12:37:13;12.80;99.90
21678;DHT22;11000;50.360;7.582;2023-12-28T12:39:33;12.70;99.90
21678;DHT22;11000;50.360;7.582;2023-12-28T12:41:54;12.70;99.90
21678;DHT22;11000;50.360;7.582;2023-12-28T12:44:19;12.80;99.90
21678;DHT22;11000;50.360;7.582;2023-12-28T12:46:40;12.80;99.90
21678;DHT22;11000;50.360;7.582;2023-12-28T12:49:01;12.80;99.90
21678;DHT22;11000;50.360;7.582;2023-12-28T12:51:23;12.80;99.90
21678;DHT22;11000;50.360;7.582;2023-12-28T12:53:43;12.80;99.90
21678;DHT22;11000;50.360;7.582;2023-12-28T12:56:04;12.70;99.90
21678;DHT22;11000;50.360;7.582;2023-12-28T12:58:25;12.70;99.90
21678;DHT22;11000;50.360;7.582;2023-12-28T13:00:45;12.80;99.90
21678;DHT22;11000;50.360;7.582;2023-12-28T13:03:10;12.90;99.90
21678;DHT22;11000;50.360;7.582;2023-12-28T13:05:30;12.90;99.90
21678;DHT22;11000;50.360;7.582;2023-12-28T13:07:51;12.90;99.90
21678;DHT22;11000;50.360;7.582;2023-12-28T13:10:11;13.00;99.90
21678;DHT22;11000;50.360;7.582;2023-12-28T13:12:32;13.00;99.90
21678;DHT22;11000;50.360;7.582;2023-12-28T13:14:52;13.10;99.90
21678;DHT22;11000;50.360;7.582;2023-12-28T13:17:13;13.10;99.90
21678;DHT22;11000;50.360;7.582;2023-12-28T13:19:33;13.20;99.90
21678;DHT22;11000;50.360;7.582;2023-12-28T13:21:54;13.10;99.90
21678;DHT22;11000;50.360;7.582;2023-12-28T13:24:14;13.00;99.90
21678;DHT22;11000;50.360;7.582;2023-12-28T13:26:35;13.10;99.90
21678;DHT22;11000;50.360;7.582;2023-12-28T13:28:55;13.20;99.90
21678;DHT22;11000;50.360;7.582;2023-12-28T13:31:16;13.20;99.90
21678;DHT22;11000;50.360;7.582;2023-12-28T13:33:38;13.30;99.90
21678;DHT22;11000;50.360;7.582;2023-12-28T13:35:59;13.20;99.90
21678;DHT22;11000;50.360;7.582;2023-12-28T13:38:19;13.30;99.90
21678;DHT22;11000;50.360;7.582;2023-12-28T13:40:40;13.40;99.90
21678;DHT22;11000;50.360;7.582;2023-12-28T13:43:00;13.30;99.90
21678;DHT22;11000;50.360;7.582;2023-12-28T13:45:21;13.30;99.90
21678;DHT22;11000;50.360;7.582;2023-12-28T13:47:41;13.40;99.90
21678;DHT22;11000;50.360;7.582;2023-12-28T13:50:02;13.40;99.90
21678;DHT22;11000;50.360;7.582;2023-12-28T13:52:22;13.50;99.90
21678;DHT22;11000;50.360;7.582;2023-12-28T13:54:43;13.40;99.90
21678;DHT22;11000;50.360;7.582;2023-12-28T13:57:03;13.40;99.90
21678;DHT22;11000;50.360;7.582;2023-12-28T13:59:24;13.40;99.90
21678;DHT22;11000;50.360;7.582;2023-12-28T14:01:45;13.40;99.90
21678;DHT22;11000;50.360;7.582;2023-12-28T14:04:05;13.30;99.90
21678;DHT22;11000;50.360;7.582;2023-12-28T14:06:26;13.30;99.90
21678;DHT22;11000;50.360;7.582;2023-12-28T14:08:47;13.20;99.90
21678;DHT22;11000;50.360;7.582;2023-12-28T14:11:07;13.20;99.90
21678;DHT22;11000;50.360;7.582;2023-12-28T14:13:28;13.10;99.90
21678;DHT22;11000;50.360;7.582;2023-12-28T14:15:49;13.10;99.90
21678;DHT22;11000;50.360;7.582;2023-12-28T14:18:09;13.10;99.90
21678;DHT22;11000;50.360;7.582;2023-12-28T14:20:30;13.00;99.90
21678;DHT22;11000;50.360;7.582;2023-12-28T14:22:50;12.90;99.90
21678;DHT22;11000;50.360;7.582;2023-12-28T14:25:11;12.80;99.90
21678;DHT22;11000;50.360;7.582;2023-12-28T14:27:32;12.70;99.90
21678;DHT22;11000;50.360;7.582;2023-12-28T14:29:53;12.70;99.90
21678;DHT22;11000;50.360;7.582;2023-12-28T14:32:14;12.60;99.90
21678;DHT22;11000;50.360;7.582;2023-12-28T14:34:35;12.70;99.90
21678;DHT22;11000;50.360;7.582;2023-12-28T14:36:56;12.50;99.90
21678;DHT22;11000;50.360;7.582;2023-12-28T14:39:16;12.50;99.90
21678;DHT22;11000;50.360;7.582;2023-12-28T14:41:40;12.50;99.90
21678;DHT22;11000;50.360;7.582;2023-12-28T14:44:00;12.40;99.90
21678;DHT22;11000;50.360;7.582;2023-12-28T14:46:21;12.40;99.90
21678;DHT22;11000;50.360;7.582;2023-12-28T14:48:42;12.30;99.90
21678;DHT22;11000;50.360;7.582;2023-12-28T14:51:02;12.30;99.90
21678;DHT22;11000;50.360;7.582;2023-12-28T14:53:23;12.30;99.90
21678;DHT22;11000;50.360;7.582;2023-12-28T14:55:45;12.20;99.90
21678;DHT22;11000;50.360;7.582;2023-12-28T14:58:06;12.20;99.90
21678;DHT22;11000;50.360;7.582;2023-12-28T15:00:26;12.10;99.90